Time;durP1;ratioP1;P1;durP2;ratioP2;P2;SDS_P1;SDS_P2;PMS_P1;PMS_P2;Temp;Humidity;BMP_temperature;BMP_pressure;BME280_temperature;BME280_humidity;BME280_pressure;Samples;Min_cycle;Max_cycle;Signal;HPM_P1;HPM_P2
2022/04/26 03:36:10;;;;;;;13.52;8.48;;;11.40;99.90;;;;;;5096972;28;20030;-82
2022/04/26 03:38:43;;;;;;;11.57;7.95;;;11.40;99.90;;;;;;5095218;28;20032;-83
2022/04/26 03:41:09;;;;;;;12.43;7.65;;;11.40;99.90;;;;;;5097023;28;20020;-82
2022/04/26 03:43:35;;;;;;;12.32;8.07;;;11.40;99.90;;;;;;5095391;28;20081;-81
2022/04/26 03:46:01;;;;;;;11.98;7.57;;;11.40;99.90;;;;;;5095981;28;20032;-81
2022/04/26 03:48:28;;;;;;;13.73;8.05;;;11.30;99.90;;;;;;5095320;28;20028;-81
2022/04/26 03:50:54;;;;;;;11.20;7.22;;;11.30;99.90;;;;;;5095847;28;20431;-81
2022/04/26 03:53:20;;;;;;;12.27;8.85;;;11.30;99.90;;;;;;5095618;28;20123;-83
2022/04/26 03:55:46;;;;;;;12.68;7.00;;;11.30;99.90;;;;;;5096041;28;20024;-83
2022/04/26 03:58:12;;;;;;;13.35;7.68;;;11.30;99.90;;;;;;5095160;28;20048;-83
2022/04/26 04:00:38;;;;;;;13.18;7.75;;;11.30;99.90;;;;;;5095104;28;20043;-82
2022/04/26 04:03:04;;;;;;;15.25;8.45;;;11.30;99.90;;;;;;5095629;28;20031;-82
2022/04/26 04:05:30;;;;;;;10.82;7.93;;;11.30;99.90;;;;;;5095267;28;20077;-82
2022/04/26 04:07:55;;;;;;;13.15;8.30;;;11.30;99.90;;;;;;5096497;28;20020;-82
2022/04/26 04:10:21;;;;;;;14.73;8.50;;;11.30;99.90;;;;;;5095618;28;20062;-82
2022/04/26 04:12:47;;;;;;;11.70;7.30;;;11.30;99.90;;;;;;5095248;28;20540;-82
2022/04/26 04:15:13;;;;;;;12.57;7.75;;;11.30;99.90;;;;;;5096436;28;20415;-82
2022/04/26 04:17:38;;;;;;;11.63;6.88;;;11.20;99.90;;;;;;5094657;28;20114;-82
2022/04/26 04:20:04;;;;;;;11.23;7.47;;;11.30;99.90;;;;;;5095460;28;20486;-82
2022/04/26 04:22:30;;;;;;;11.93;7.90;;;11.30;99.90;;;;;;5094965;28;20024;-82
2022/04/26 04:24:55;;;;;;;10.95;7.68;;;11.20;99.90;;;;;;5095394;28;20073;-82
2022/04/26 04:27:21;;;;;;;12.57;7.43;;;11.20;99.90;;;;;;5094923;28;20069;-82
2022/04/26 04:29:46;;;;;;;12.15;7.78;;;11.20;99.90;;;;;;5095646;28;20047;-82
2022/04/26 04:32:12;;;;;;;12.60;8.05;;;11.20;99.90;;;;;;5096060;28;20039;-82
2022/04/26 04:34:39;;;;;;;11.75;7.55;;;11.20;99.90;;;;;;5095566;28;20474;-83
2022/04/26 04:37:05;;;;;;;15.52;8.45;;;11.10;99.90;;;;;;5094670;28;20373;-82
2022/04/26 04:39:31;;;;;;;12.43;8.00;;;11.10;99.90;;;;;;5094049;28;20036;-82
2022/04/26 04:41:56;;;;;;;13.40;8.73;;;11.10;99.90;;;;;;5094467;28;20427;-82
2022/04/26 04:44:22;;;;;;;12.02;7.60;;;11.20;99.90;;;;;;5094316;28;20024;-82
2022/04/26 04:46:49;;;;;;;13.55;8.57;;;11.20;99.90;;;;;;5093835;28;20457;-84
2022/04/26 04:49:15;;;;;;;13.80;8.05;;;11.10;99.90;;;;;;5092682;28;20035;-82
2022/04/26 04:51:40;;;;;;;14.07;9.05;;;11.10;99.90;;;;;;5094090;28;20081;-81
2022/04/26 04:54:06;;;;;;;15.88;9.57;;;11.10;99.90;;;;;;5094999;28;20028;-83
2022/04/26 04:56:32;;;;;;;15.18;9.23;;;11.10;99.90;;;;;;5094206;28;20035;-83
2022/04/26 04:58:58;;;;;;;13.95;8.82;;;11.10;99.90;;;;;;5094468;28;20060;-83
2022/04/26 05:01:23;;;;;;;16.73;9.60;;;11.10;99.90;;;;;;5094678;28;20497;-83
2022/04/26 05:03:50;;;;;;;16.38;10.20;;;11.10;99.90;;;;;;5093758;28;20396;-82
2022/04/26 05:06:16;;;;;;;18.08;10.25;;;11.10;99.90;;;;;;5094247;28;20028;-81
2022/04/26 05:08:45;;;;;;;16.52;9.88;;;11.10;99.90;;;;;;5094805;28;20587;-81
2022/04/26 05:11:11;;;;;;;16.83;10.20;;;11.10;99.90;;;;;;5093818;28;20056;-82
2022/04/26 05:13:37;;;;;;;19.50;11.05;;;11.00;99.90;;;;;;5093517;28;20050;-81
2022/04/26 05:16:03;;;;;;;16.55;10.73;;;11.00;99.90;;;;;;5093824;28;20427;-81
2022/04/26 05:18:29;;;;;;;18.38;10.75;;;11.00;99.90;;;;;;5093330;28;20028;-81
2022/04/26 05:20:55;;;;;;;18.40;10.32;;;11.10;99.90;;;;;;5095033;28;20028;-82
2022/04/26 05:26:05;;;;;;;17.42;11.13;;;11.10;99.90;;;;;;5094935;28;20393;-82
2022/04/26 05:28:31;;;;;;;17.13;10.68;;;11.10;99.90;;;;;;5094281;28;20036;-82
2022/04/26 05:30:57;;;;;;;17.23;10.55;;;11.10;99.90;;;;;;5093711;28;20032;-82
2022/04/26 05:33:24;;;;;;;15.93;10.02;;;11.20;99.90;;;;;;5093725;28;20024;-82
2022/04/26 05:35:51;;;;;;;17.33;10.82;;;11.20;99.90;;;;;;5094236;28;20077;-83
2022/04/26 05:38:17;;;;;;;16.73;10.27;;;11.20;99.90;;;;;;5093673;28;20463;-84
2022/04/26 05:40:42;;;;;;;17.00;10.60;;;11.20;99.90;;;;;;5094525;28;20059;-84
2022/04/26 05:43:09;;;;;;;17.40;10.90;;;11.20;99.90;;;;;;5093534;28;20024;-84
2022/04/26 05:45:34;;;;;;;17.23;10.73;;;11.10;99.90;;;;;;5093228;28;20024;-83
2022/04/26 05:48:00;;;;;;;17.98;10.45;;;11.10;99.90;;;;;;5093092;28;20561;-83
2022/04/26 05:50:26;;;;;;;17.10;10.40;;;11.10;99.90;;;;;;5093555;28;20028;-83
2022/04/26 05:52:51;;;;;;;16.38;9.73;;;11.00;99.90;;;;;;5094146;28;20388;-83
2022/04/26 05:55:17;;;;;;;18.42;11.05;;;11.00;99.90;;;;;;5093420;28;20118;-82
2022/04/26 05:57:44;;;;;;;16.35;9.98;;;11.00;99.90;;;;;;5092762;28;20127;-83
2022/04/26 06:00:12;;;;;;;17.92;10.13;;;11.10;99.90;;;;;;5093849;28;20445;-82
2022/04/26 06:02:38;;;;;;;18.67;10.77;;;11.10;99.90;;;;;;5093897;28;20035;-82
2022/04/26 06:05:04;;;;;;;16.02;9.55;;;11.10;99.90;;;;;;5094508;28;20021;-82
2022/04/26 06:07:30;;;;;;;16.42;10.13;;;11.20;99.90;;;;;;5092548;28;20495;-81
2022/04/26 06:09:56;;;;;;;14.88;9.20;;;11.20;99.90;;;;;;5093143;28;20114;-80
2022/04/26 06:12:26;;;;;;;16.95;9.75;;;11.20;99.90;;;;;;5093248;28;20031;-82
2022/04/26 06:14:56;;;;;;;18.45;9.82;;;11.20;99.90;;;;;;5092307;28;20028;-82
2022/04/26 06:17:23;;;;;;;13.32;9.20;;;11.20;99.90;;;;;;5093020;28;20461;-82
2022/04/26 06:19:49;;;;;;;13.93;8.80;;;11.30;99.90;;;;;;5091979;28;20028;-82
2022/04/26 06:22:21;;;;;;;16.02;10.18;;;11.30;99.90;;;;;;5094014;28;20024;-84
2022/04/26 06:24:46;;;;;;;18.10;10.15;;;11.30;99.90;;;;;;5093768;28;20028;-82
2022/04/26 06:27:12;;;;;;;16.52;10.23;;;11.40;99.90;;;;;;5092954;28;20028;-81
2022/04/26 06:29:37;;;;;;;17.60;10.63;;;11.30;99.90;;;;;;5092014;28;20036;-81
2022/04/26 06:32:04;;;;;;;18.90;10.73;;;11.40;99.90;;;;;;5092781;28;20028;-83
2022/04/26 06:34:29;;;;;;;16.52;10.07;;;11.40;99.90;;;;;;5093179;28;20094;-81
2022/04/26 06:36:55;;;;;;;15.45;9.88;;;11.40;99.90;;;;;;5093110;28;20103;-80
2022/04/26 06:39:21;;;;;;;14.75;9.45;;;11.30;99.90;;;;;;5092454;28;20082;-81
2022/04/26 06:41:47;;;;;;;14.73;9.43;;;11.40;99.90;;;;;;5091476;28;20455;-81
2022/04/26 06:44:12;;;;;;;17.05;9.82;;;11.40;99.90;;;;;;5093424;28;20028;-80
2022/04/26 06:46:38;;;;;;;13.77;9.10;;;11.40;99.90;;;;;;5095873;28;20492;-82
2022/04/26 06:49:05;;;;;;;17.63;10.15;;;11.40;99.90;;;;;;5096066;28;20024;-82
2022/04/26 06:51:35;;;;;;;16.17;9.85;;;11.50;99.90;;;;;;5097234;28;20028;-84
2022/04/26 06:54:01;;;;;;;15.68;9.40;;;11.50;99.90;;;;;;5096602;28;20020;-84
2022/04/26 06:56:26;;;;;;;16.30;9.90;;;11.50;99.90;;;;;;5093345;28;20034;-84
2022/04/26 06:58:52;;;;;;;14.00;9.02;;;11.60;99.90;;;;;;5095252;28;20455;-82
2022/04/26 07:01:17;;;;;;;14.20;8.65;;;11.50;99.90;;;;;;5097058;28;20077;-82
2022/04/26 07:03:43;;;;;;;12.90;8.63;;;11.50;99.90;;;;;;5095639;28;20016;-82
2022/04/26 07:06:08;;;;;;;13.52;8.50;;;11.60;99.90;;;;;;5096337;28;20045;-83
2022/04/26 07:08:34;;;;;;;12.95;8.40;;;11.70;99.90;;;;;;5096701;28;20020;-83
2022/04/26 07:11:00;;;;;;;15.00;8.15;;;11.70;99.90;;;;;;5096225;28;20020;-79
2022/04/26 07:13:25;;;;;;;14.27;9.10;;;11.70;99.90;;;;;;5095811;28;20028;-81
2022/04/26 07:15:51;;;;;;;11.55;8.13;;;11.80;99.90;;;;;;5096323;28;20520;-83
2022/04/26 07:18:16;;;;;;;13.23;8.27;;;11.80;99.90;;;;;;5096130;28;20539;-81
2022/04/26 07:20:44;;;;;;;10.90;7.60;;;11.70;99.90;;;;;;5096326;28;20085;-83
2022/04/26 07:23:12;;;;;;;11.32;7.65;;;11.70;99.90;;;;;;5095675;28;20532;-83
2022/04/26 07:25:38;;;;;;;11.15;7.28;;;11.70;99.90;;;;;;5094793;28;20024;-83
2022/04/26 07:28:04;;;;;;;12.20;8.02;;;11.60;99.90;;;;;;5095437;28;20086;-83
2022/04/26 07:30:36;;;;;;;13.13;8.68;;;11.60;99.90;;;;;;5090717;28;20377;-82
2022/04/26 07:35:46;;;;;;;12.18;7.50;;;11.50;99.90;;;;;;5090513;28;19956;-80
2022/04/26 07:38:12;;;;;;;15.52;9.15;;;11.40;99.90;;;;;;5094618;28;20028;-81
2022/04/26 07:40:37;;;;;;;11.95;7.65;;;11.40;99.90;;;;;;5094336;28;20039;-79
2022/04/26 07:43:04;;;;;;;14.40;8.88;;;11.40;99.90;;;;;;5095069;28;20484;-80
2022/04/26 07:45:31;;;;;;;12.13;7.93;;;11.50;99.90;;;;;;5094700;28;20411;-80
2022/04/26 07:47:58;;;;;;;16.35;8.82;;;11.40;99.90;;;;;;5093860;28;20024;-81
2022/04/26 07:50:24;;;;;;;12.27;8.35;;;11.50;99.90;;;;;;5094594;28;20115;-83
2022/04/26 07:52:49;;;;;;;14.50;8.60;;;11.60;99.90;;;;;;5094933;28;20052;-83
2022/04/26 07:55:15;;;;;;;13.30;8.18;;;11.60;99.90;;;;;;5095047;28;20024;-85
2022/04/26 07:57:41;;;;;;;12.45;7.90;;;11.60;99.90;;;;;;5092790;28;20050;-84
2022/04/26 08:00:07;;;;;;;10.60;7.05;;;11.70;99.90;;;;;;5094714;28;20326;-87
2022/04/26 08:02:33;;;;;;;11.38;6.80;;;11.80;99.90;;;;;;5094432;28;20487;-84
2022/04/26 08:05:01;;;;;;;11.07;6.90;;;11.90;99.90;;;;;;5094021;28;20024;-89
2022/04/26 08:07:31;;;;;;;8.77;6.60;;;12.10;99.90;;;;;;5094355;28;20032;-88
2022/04/26 08:09:57;;;;;;;10.10;7.22;;;12.20;99.90;;;;;;5092026;28;20028;-82
2022/04/26 08:12:23;;;;;;;9.55;6.28;;;12.20;99.90;;;;;;5094318;28;20028;-80
2022/04/26 08:14:48;;;;;;;10.63;6.80;;;12.40;99.90;;;;;;5094712;28;20020;-83
2022/04/26 08:17:15;;;;;;;11.48;6.20;;;12.40;99.90;;;;;;5094829;28;20021;-84
2022/04/26 08:19:42;;;;;;;10.85;6.15;;;12.50;99.90;;;;;;5094903;28;20053;-81
2022/04/26 08:22:07;;;;;;;9.25;6.05;;;12.70;99.90;;;;;;5091914;28;20032;-85
2022/04/26 08:27:24;;;;;;;9.80;5.75;;;12.80;99.90;;;;;;5095694;28;20165;-85
2022/04/26 08:29:54;;;;;;;9.30;6.22;;;12.80;99.90;;;;;;5093950;28;20485;-86
2022/04/26 08:32:19;;;;;;;10.05;6.40;;;12.90;99.90;;;;;;5095441;28;20024;-88
2022/04/26 08:34:45;;;;;;;13.75;8.07;;;12.90;99.90;;;;;;5090292;28;20358;-89
2022/04/26 08:37:11;;;;;;;7.65;5.30;;;12.80;99.90;;;;;;5095809;28;20074;-88
2022/04/26 08:39:37;;;;;;;8.95;5.45;;;12.80;99.90;;;;;;5094292;28;20393;-87
2022/04/26 08:42:04;;;;;;;7.93;5.47;;;12.80;99.90;;;;;;5094902;28;20020;-89
2022/04/26 08:44:30;;;;;;;7.43;5.30;;;12.90;99.90;;;;;;5097610;28;20044;-89
2022/04/26 08:52:27;;;;;;;9.07;5.43;;;13.00;99.90;;;;;;5095522;28;20030;-90
2022/04/26 08:54:53;;;;;;;8.93;5.45;;;12.90;99.90;;;;;;5094697;28;20413;-90
2022/04/26 08:57:20;;;;;;;8.45;5.32;;;13.00;99.90;;;;;;5094889;28;20066;-89
2022/04/26 08:59:50;;;;;;;11.23;5.80;;;13.00;99.90;;;;;;5093550;28;20123;-89
2022/04/26 09:02:21;;;;;;;10.25;6.28;;;13.00;99.90;;;;;;5093879;28;20028;-91
2022/04/26 09:04:49;;;;;;;10.07;6.63;;;13.00;99.90;;;;;;5095971;28;20039;-84
2022/04/26 09:07:30;;;;;;;10.38;6.68;;;13.10;99.90;;;;;;5083650;28;20031;-85
2022/04/26 09:10:14;;;;;;;10.10;6.20;;;13.00;99.90;;;;;;5092382;28;20031;-84
2022/04/26 09:13:09;;;;;;;11.88;6.03;;;13.20;99.90;;;;;;5078205;28;20020;-83
2022/04/26 09:15:54;;;;;;;11.00;7.20;;;13.20;99.90;;;;;;5094214;28;20028;-80
2022/04/26 09:18:29;;;;;;;10.15;6.10;;;13.30;99.90;;;;;;5093598;28;20537;-83
2022/04/26 09:20:56;;;;;;;9.75;6.50;;;13.20;99.90;;;;;;5093138;28;20392;-81
2022/04/26 09:23:27;;;;;;;12.23;6.90;;;13.20;99.90;;;;;;5093475;28;20030;-81
2022/04/26 09:26:07;;;;;;;11.48;7.93;;;13.10;99.90;;;;;;5094020;28;20024;-82
2022/04/26 09:28:33;;;;;;;10.20;6.70;;;12.90;99.90;;;;;;5077064;28;20033;-81
2022/04/26 09:30:58;;;;;;;9.80;6.13;;;12.70;99.90;;;;;;5093563;28;20265;-81
2022/04/26 09:33:32;;;;;;;8.98;6.35;;;12.70;99.90;;;;;;5093186;28;20393;-81
2022/04/26 09:36:06;;;;;;;9.73;6.28;;;12.70;99.90;;;;;;5092525;28;20232;-84
2022/04/26 09:38:33;;;;;;;10.25;6.18;;;12.60;99.90;;;;;;5077192;28;20044;-85
2022/04/26 09:41:01;;;;;;;9.55;5.13;;;12.50;99.90;;;;;;5092876;28;20028;-85
2022/04/26 09:43:28;;;;;;;7.22;4.45;;;12.50;99.90;;;;;;5093218;28;20028;-83
2022/04/26 09:46:00;;;;;;;7.40;4.38;;;12.50;99.90;;;;;;5093058;28;20028;-86
2022/04/26 09:48:35;;;;;;;7.15;4.10;;;12.40;99.90;;;;;;5094012;28;20024;-86
2022/04/26 09:51:05;;;;;;;6.80;4.18;;;12.30;99.90;;;;;;5092048;28;20031;-82
2022/04/26 09:53:32;;;;;;;8.18;4.25;;;12.40;99.90;;;;;;5085013;28;20028;-85
2022/04/26 09:55:59;;;;;;;6.38;3.67;;;12.50;99.90;;;;;;5093354;28;20032;-82
2022/04/26 09:58:29;;;;;;;4.93;3.40;;;12.50;99.90;;;;;;5092105;28;20052;-83
2022/04/26 10:01:04;;;;;;;3.75;2.88;;;12.50;99.90;;;;;;5089170;28;20024;-82
2022/04/26 10:03:37;;;;;;;5.78;3.97;;;12.50;99.90;;;;;;5092422;28;20032;-81
2022/04/26 10:06:05;;;;;;;6.70;4.10;;;12.50;99.90;;;;;;5092965;28;20016;-84
2022/04/26 10:08:34;;;;;;;6.65;3.97;;;12.60;99.90;;;;;;5093876;28;20107;-84
2022/04/26 10:11:01;;;;;;;14.10;7.55;;;12.60;99.90;;;;;;5092194;28;20024;-82
2022/04/26 10:13:32;;;;;;;9.57;5.82;;;12.50;99.90;;;;;;5092656;28;20032;-82
2022/04/26 10:16:04;;;;;;;9.63;5.18;;;12.60;99.90;;;;;;5093122;28;20024;-82
2022/04/26 10:18:34;;;;;;;7.25;4.50;;;12.50;99.90;;;;;;5076060;28;20418;-82
2022/04/26 10:21:03;;;;;;;7.35;4.78;;;12.60;99.90;;;;;;5091702;28;20028;-84
2022/04/26 10:23:48;;;;;;;10.70;4.97;;;12.70;99.90;;;;;;5093425;28;20031;-84
2022/04/26 10:26:23;;;;;;;9.13;4.72;;;12.90;99.90;;;;;;5092186;28;20028;-84
2022/04/26 10:28:53;;;;;;;8.75;5.25;;;13.20;99.90;;;;;;5091874;28;20028;-84
2022/04/26 10:31:35;;;;;;;9.45;5.95;;;13.40;99.90;;;;;;5082937;28;20032;-84
2022/04/26 10:34:03;;;;;;;10.07;6.15;;;13.50;99.90;;;;;;5092990;28;20243;-85
2022/04/26 10:36:34;;;;;;;11.18;6.32;;;13.70;99.90;;;;;;5092173;28;20031;-83
2022/04/26 10:39:07;;;;;;;11.57;6.70;;;13.80;99.90;;;;;;5091380;28;20081;-83
2022/04/26 10:41:37;;;;;;;9.57;6.22;;;13.90;99.90;;;;;;5092684;28;20059;-83
2022/04/26 10:44:26;;;;;;;11.10;7.38;;;14.00;99.90;;;;;;5090991;28;20454;-84
2022/04/26 10:46:59;;;;;;;11.38;7.03;;;13.90;99.90;;;;;;5087377;28;20066;-82
2022/04/26 10:49:35;;;;;;;11.60;6.85;;;13.60;99.90;;;;;;5091809;28;20024;-82
2022/04/26 10:52:25;;;;;;;8.93;6.07;;;13.40;99.90;;;;;;5094402;28;20682;-95
2022/04/26 10:57:21;;;;;;;10.35;6.13;;;12.90;99.90;;;;;;5091761;28;20390;-82
2022/04/26 10:59:49;;;;;;;12.20;6.43;;;12.60;99.90;;;;;;5089439;28;20484;-83
2022/04/26 11:02:17;;;;;;;12.32;6.35;;;12.40;99.90;;;;;;5089305;28;20477;-83
2022/04/26 11:04:44;;;;;;;10.88;6.07;;;12.20;99.90;;;;;;5089727;28;20081;-83
2022/04/26 11:07:14;;;;;;;10.55;6.20;;;11.90;99.90;;;;;;5091014;28;20024;-82
2022/04/26 11:09:49;;;;;;;14.65;6.97;;;11.90;99.90;;;;;;5091649;28;20061;-84
2022/04/26 11:12:18;;;;;;;10.57;6.22;;;11.80;99.90;;;;;;5091969;28;20032;-87
2022/04/26 11:14:45;;;;;;;7.18;4.60;;;11.80;99.90;;;;;;5092025;28;20020;-79
2022/04/26 11:17:11;;;;;;;6.57;4.45;;;11.80;99.90;;;;;;5090009;28;20082;-82
2022/04/26 11:19:38;;;;;;;6.18;3.22;;;11.70;99.90;;;;;;5093318;28;20484;-81
2022/04/26 11:22:08;;;;;;;4.05;2.90;;;11.70;99.90;;;;;;5096106;28;20501;-87
2022/04/26 11:30:07;;;;;;;3.63;2.53;;;11.50;99.90;;;;;;5096414;28;20110;-89
2022/04/26 11:32:43;;;;;;;7.90;3.05;;;11.60;99.90;;;;;;5097853;28;20087;-90
2022/04/26 11:35:10;;;;;;;3.08;2.33;;;11.60;99.90;;;;;;5101385;28;20081;-89
2022/04/26 11:37:47;;;;;;;6.20;2.47;;;11.70;99.90;;;;;;5098691;28;20514;-95
2022/04/26 11:40:31;;;;;;;3.15;1.92;;;11.80;99.90;;;;;;5097319;28;20036;-92
2022/04/26 11:42:58;;;;;;;3.55;2.30;;;12.00;99.90;;;;;;5093416;28;20020;-85
2022/04/26 11:45:32;;;;;;;2.85;2.25;;;12.10;99.90;;;;;;5095462;28;20031;-86
2022/04/26 11:47:58;;;;;;;3.50;2.10;;;12.10;99.90;;;;;;5095428;28;20039;-91
2022/04/26 11:50:29;;;;;;;2.63;2.28;;;12.30;99.90;;;;;;5095529;28;20028;-92
2022/04/26 11:53:05;;;;;;;2.83;2.03;;;12.40;99.90;;;;;;5095171;28;20349;-82
2022/04/26 11:55:34;;;;;;;3.45;2.20;;;12.50;99.90;;;;;;5095899;28;20530;-89
2022/04/26 11:58:07;;;;;;;3.30;2.08;;;12.60;99.90;;;;;;5094895;28;20062;-89
2022/04/26 12:00:33;;;;;;;2.58;1.98;;;12.80;99.90;;;;;;5096606;28;20116;-89
2022/04/26 12:03:02;;;;;;;4.63;2.17;;;13.00;99.90;;;;;;5095153;28;20039;-89
2022/04/26 12:05:28;;;;;;;2.60;1.80;;;13.20;99.90;;;;;;5096637;28;20028;-89
2022/04/26 12:07:55;;;;;;;2.95;1.80;;;13.30;99.90;;;;;;5095265;28;20024;-89
2022/04/26 12:10:34;;;;;;;3.00;1.90;;;13.50;99.90;;;;;;5095547;28;20492;-89
2022/04/26 12:13:05;;;;;;;2.83;1.60;;;13.70;99.90;;;;;;5095015;28;20024;-89
2022/04/26 12:15:33;;;;;;;1.67;1.52;;;13.90;99.90;;;;;;5097237;28;20024;-89
2022/04/26 12:18:10;;;;;;;1.70;1.20;;;13.90;99.90;;;;;;5095444;28;20477;-89
2022/04/26 12:20:54;;;;;;;2.15;1.42;;;14.00;99.90;;;;;;5095386;28;20024;-89
2022/04/26 12:23:21;;;;;;;1.25;1.08;;;14.00;99.90;;;;;;5096333;28;20035;-89
2022/04/26 12:26:01;;;;;;;1.23;1.08;;;14.30;98.20;;;;;;5095075;28;20062;-87
2022/04/26 12:28:27;;;;;;;1.48;1.30;;;14.50;97.50;;;;;;5094573;28;20020;-89
2022/04/26 12:30:53;;;;;;;1.73;1.05;;;14.70;96.90;;;;;;5094535;28;20115;-88
2022/04/26 12:33:35;;;;;;;2.00;1.17;;;14.90;94.80;;;;;;5095838;28;20510;-89
2022/04/26 12:36:06;;;;;;;1.40;1.30;;;15.20;95.30;;;;;;5094452;28;20139;-89
2022/04/26 12:38:50;;;;;;;1.50;1.08;;;15.60;95.50;;;;;;5094779;28;20031;-89
2022/04/26 12:41:16;;;;;;;1.45;1.20;;;16.00;92.20;;;;;;5095157;28;20054;-89
2022/04/26 12:43:43;;;;;;;2.13;1.77;;;16.10;91.90;;;;;;5093983;28;20028;-88
2022/04/26 12:46:09;;;;;;;3.20;1.58;;;16.20;92.40;;;;;;5094252;28;20102;-89
2022/04/26 12:51:21;;;;;;;1.92;1.50;;;16.20;94.20;;;;;;5095932;28;20039;-89
2022/04/26 12:53:48;;;;;;;3.50;1.55;;;16.30;96.40;;;;;;5094557;28;20102;-88
2022/04/26 12:56:15;;;;;;;2.25;1.65;;;16.50;94.30;;;;;;5094515;28;20035;-88
2022/04/26 12:58:43;;;;;;;2.63;1.70;;;16.50;94.40;;;;;;5093400;28;20059;-88
2022/04/26 13:01:09;;;;;;;2.90;1.48;;;16.60;93.80;;;;;;5092070;28;20023;-88
2022/04/26 13:03:36;;;;;;;1.65;1.30;;;16.80;95.30;;;;;;5095021;28;20028;-88
2022/04/26 13:06:09;;;;;;;1.60;1.30;;;17.10;92.50;;;;;;5094373;28;20024;-88
2022/04/26 13:08:36;;;;;;;1.50;1.40;;;17.10;90.10;;;;;;5094317;28;20488;-88
2022/04/26 13:11:02;;;;;;;1.50;1.27;;;16.80;89.70;;;;;;5093767;28;20028;-88
2022/04/26 13:13:27;;;;;;;2.75;1.30;;;16.60;88.00;;;;;;5094461;28;20378;-88
2022/04/26 13:15:53;;;;;;;1.98;1.40;;;16.30;89.90;;;;;;5093879;28;20020;-88
2022/04/26 13:18:19;;;;;;;2.90;1.50;;;16.20;89.70;;;;;;5094313;28;20035;-88
2022/04/26 13:20:46;;;;;;;1.90;1.50;;;15.80;89.30;;;;;;5094326;28;20028;-88
2022/04/26 13:23:12;;;;;;;1.58;1.25;;;15.70;91.70;;;;;;5093614;28;20028;-87
2022/04/26 13:25:38;;;;;;;2.22;1.30;;;15.50;91.20;;;;;;5093977;28;20031;-88
2022/04/26 13:28:05;;;;;;;3.17;1.83;;;15.30;92.50;;;;;;5093615;28;20030;-87
2022/04/26 13:30:31;;;;;;;2.33;1.30;;;15.40;92.80;;;;;;5095021;28;20032;-89
2022/04/26 13:32:56;;;;;;;3.03;1.58;;;15.40;92.90;;;;;;5094758;28;20031;-88
2022/04/26 13:35:22;;;;;;;1.60;1.50;;;15.40;92.30;;;;;;5094440;28;20051;-89
2022/04/26 13:37:50;;;;;;;1.60;1.38;;;15.30;93.50;;;;;;5093943;28;20115;-88
2022/04/26 13:40:15;;;;;;;2.60;1.80;;;15.10;93.90;;;;;;5093833;28;20536;-89
2022/04/26 13:42:41;;;;;;;2.40;1.75;;;14.80;93.10;;;;;;5094952;28;20074;-89
2022/04/26 13:45:07;;;;;;;2.85;1.90;;;14.70;92.60;;;;;;5094355;28;20457;-88
2022/04/26 13:47:34;;;;;;;2.67;1.60;;;14.60;93.20;;;;;;5093979;28;20031;-88
2022/04/26 13:50:00;;;;;;;2.28;1.88;;;14.50;94.30;;;;;;5093192;28;20381;-88
2022/04/26 13:52:26;;;;;;;4.05;1.90;;;14.40;95.60;;;;;;5094689;28;20449;-87
2022/04/26 13:54:51;;;;;;;4.95;1.90;;;14.20;96.60;;;;;;5092652;28;20031;-87
2022/04/26 13:57:17;;;;;;;3.53;1.52;;;13.90;97.30;;;;;;5093145;28;20028;-87
2022/04/26 13:59:44;;;;;;;3.03;1.67;;;13.80;97.80;;;;;;5093503;28;20447;-89
2022/04/26 14:02:11;;;;;;;1.58;1.02;;;13.70;98.30;;;;;;5092905;28;20085;-89
2022/04/26 14:04:37;;;;;;;1.98;1.10;;;13.60;97.70;;;;;;5093107;28;20036;-88
2022/04/26 14:07:04;;;;;;;1.40;1.10;;;13.60;97.60;;;;;;5093795;28;20107;-89
2022/04/26 14:09:29;;;;;;;2.85;1.40;;;13.50;97.10;;;;;;5094122;28;20031;-89
2022/04/26 14:11:55;;;;;;;1.92;1.30;;;13.40;97.30;;;;;;5093710;28;20020;-89
2022/04/26 14:22:35;;;;;;;10.07;3.72;;;13.30;97.40;;;;;;5094347;28;20468;-90
2022/04/26 14:25:03;;;;;;;4.47;2.83;;;13.30;97.90;;;;;;5092275;28;20028;-89
2022/04/26 14:27:30;;;;;;;3.47;2.13;;;13.20;98.00;;;;;;5092985;28;20055;-88
2022/04/26 14:29:56;;;;;;;2.47;1.48;;;13.30;98.40;;;;;;5092627;28;20089;-88
2022/04/26 14:32:21;;;;;;;2.22;1.65;;;13.30;98.60;;;;;;5093152;28;20078;-89
2022/04/26 14:34:48;;;;;;;1.60;1.30;;;13.20;97.50;;;;;;5092991;28;20461;-89
2022/04/26 14:37:14;;;;;;;1.70;1.40;;;13.20;98.00;;;;;;5092257;28;20020;-88
2022/04/26 14:39:40;;;;;;;2.47;1.60;;;13.30;98.20;;;;;;5093095;28;20032;-89
2022/04/26 14:42:06;;;;;;;3.33;1.70;;;13.50;99.20;;;;;;5092322;28;20370;-89
2022/04/26 14:44:32;;;;;;;2.75;1.73;;;13.50;98.60;;;;;;5093670;28;20024;-89
2022/04/26 14:46:57;;;;;;;1.60;1.38;;;13.40;99.10;;;;;;5092018;28;20034;-88
2022/04/26 14:49:23;;;;;;;2.20;1.40;;;13.30;99.90;;;;;;5092640;28;20123;-91
2022/04/26 14:51:49;;;;;;;2.22;1.60;;;13.30;99.90;;;;;;5092834;28;20046;-89
2022/04/26 14:54:15;;;;;;;4.25;1.55;;;13.30;99.90;;;;;;5093033;28;20020;-89
2022/04/26 14:56:41;;;;;;;2.17;1.65;;;13.30;99.90;;;;;;5092747;28;20462;-89
2022/04/26 14:59:07;;;;;;;2.80;1.83;;;13.40;99.90;;;;;;5091247;28;20052;-90
2022/04/26 15:01:34;;;;;;;4.07;2.05;;;13.60;99.90;;;;;;5092789;28;20149;-90
2022/04/26 15:04:00;;;;;;;3.08;2.03;;;14.10;99.90;;;;;;5092390;28;20388;-87
2022/04/26 15:06:26;;;;;;;2.72;2.10;;;14.40;99.90;;;;;;5093656;28;20024;-89
2022/04/26 15:11:36;;;;;;;1.63;1.10;;;14.80;99.90;;;;;;5097984;28;20089;-87
2022/04/26 15:16:49;;;;;;;1.25;0.90;;;14.60;99.90;;;;;;5097533;28;20385;-88
2022/04/26 15:19:15;;;;;;;0.90;0.80;;;14.50;99.90;;;;;;5095439;28;20087;-88
2022/04/26 15:21:43;;;;;;;1.25;0.82;;;14.60;99.90;;;;;;5096313;28;20020;-88
2022/04/26 15:24:09;;;;;;;1.63;1.10;;;14.70;99.50;;;;;;5095690;28;20180;-87
2022/04/26 15:26:36;;;;;;;1.20;1.00;;;14.70;99.60;;;;;;5096332;28;20032;-87
2022/04/26 15:29:04;;;;;;;1.42;0.90;;;15.10;99.60;;;;;;5095531;28;20469;-89
2022/04/26 15:31:30;;;;;;;1.30;1.00;;;15.00;99.20;;;;;;5096999;28;20085;-89
2022/04/26 15:33:55;;;;;;;1.10;0.88;;;14.80;98.80;;;;;;5096279;28;20024;-88
2022/04/26 15:36:21;;;;;;;0.80;0.80;;;14.60;99.00;;;;;;5095951;28;20139;-88
2022/04/26 15:38:47;;;;;;;0.93;0.70;;;14.50;99.70;;;;;;5096988;28;20052;-88
2022/04/26 15:41:14;;;;;;;2.53;0.60;;;14.30;99.80;;;;;;5095650;28;20031;-88
2022/04/26 15:43:41;;;;;;;1.60;0.63;;;14.20;99.90;;;;;;5097565;28;20463;-89
2022/04/26 15:46:08;;;;;;;1.85;0.80;;;14.00;99.90;;;;;;5095655;28;20145;-88
2022/04/26 15:48:39;;;;;;;0.88;0.75;;;13.90;99.90;;;;;;5097433;28;20050;-88
2022/04/26 15:51:06;;;;;;;1.35;0.80;;;13.80;99.90;;;;;;5095362;28;20024;-87
2022/04/26 15:53:32;;;;;;;1.55;0.88;;;13.60;99.90;;;;;;5096077;28;20024;-88
2022/04/26 15:55:58;;;;;;;1.40;1.00;;;13.50;99.90;;;;;;5095666;28;20384;-87
2022/04/26 15:58:23;;;;;;;1.45;1.00;;;13.50;99.90;;;;;;5094784;28;20056;-88
2022/04/26 16:00:51;;;;;;;1.67;1.20;;;13.40;99.90;;;;;;5095424;28;20036;-89
2022/04/26 16:03:16;;;;;;;1.58;1.05;;;13.30;99.90;;;;;;5095581;28;20020;-90
2022/04/26 16:05:44;;;;;;;2.10;1.55;;;13.30;99.90;;;;;;5095836;28;20031;-90
2022/04/26 16:08:10;;;;;;;2.63;0.98;;;13.30;99.90;;;;;;5096329;28;20024;-90
2022/04/26 16:21:33;;;;;;;1.42;1.10;;;12.80;99.90;;;;;;5096609;28;20042;-90
2022/04/26 16:24:00;;;;;;;2.58;1.52;;;12.70;99.90;;;;;;5095094;28;20028;-89
2022/04/26 16:26:27;;;;;;;3.08;1.30;;;12.60;99.90;;;;;;5095006;28;20077;-89
2022/04/26 16:28:53;;;;;;;1.73;1.20;;;12.60;99.90;;;;;;5094903;28;20036;-89
2022/04/26 16:31:24;;;;;;;1.25;1.15;;;12.60;99.90;;;;;;5094262;28;20024;-89
2022/04/26 16:33:50;;;;;;;2.42;1.42;;;12.60;99.90;;;;;;5094382;28;20069;-89
2022/04/26 16:36:17;;;;;;;2.00;1.20;;;12.60;99.90;;;;;;5094099;28;20028;-89
2022/04/26 16:38:43;;;;;;;2.15;1.42;;;12.50;99.90;;;;;;5094601;28;20028;-89
2022/04/26 16:41:09;;;;;;;2.83;1.40;;;12.50;99.90;;;;;;5095602;28;20043;-89
2022/04/26 16:43:34;;;;;;;2.30;1.23;;;12.40;99.90;;;;;;5095008;28;20024;-88
2022/04/26 16:46:03;;;;;;;2.72;1.13;;;12.40;99.90;;;;;;5094728;28;20031;-88
2022/04/26 16:48:29;;;;;;;4.60;2.72;;;12.30;99.90;;;;;;5095803;28;20036;-89
2022/04/26 16:50:54;;;;;;;5.35;3.42;;;12.20;99.90;;;;;;5095634;28;20035;-88
2022/04/26 16:53:20;;;;;;;7.40;2.42;;;12.20;99.90;;;;;;5094239;28;20031;-88
2022/04/26 16:55:46;;;;;;;4.10;1.95;;;12.20;99.90;;;;;;5094738;28;20020;-89
2022/04/26 16:58:13;;;;;;;4.35;1.80;;;12.10;99.90;;;;;;5095276;28;20458;-89
2022/04/26 17:00:41;;;;;;;1.63;1.35;;;11.90;99.90;;;;;;5094425;28;20475;-89
2022/04/26 17:03:06;;;;;;;2.90;1.65;;;11.70;99.90;;;;;;5094099;28;20050;-89
2022/04/26 17:05:32;;;;;;;2.83;1.60;;;11.80;99.90;;;;;;5094701;28;20453;-90
2022/04/26 17:07:58;;;;;;;2.03;1.30;;;11.80;99.90;;;;;;5095758;28;20041;-90